Time;durP1;ratioP1;P1;durP2;ratioP2;P2;SDS_P1;SDS_P2;PMS_P1;PMS_P2;Temp;Humidity;BMP_temperature;BMP_pressure;BME280_temperature;BME280_humidity;BME280_pressure;Samples;Min_cycle;Max_cycle;Signal;HPM_P1;HPM_P2
2023/08/13 00:00:33;;;;;;;5.40;4.90;;;;;;;;;;6156056;23;20490;-61
2023/08/13 00:03:02;;;;;;;5.47;4.60;;;;;;;;;;6155987;23;20646;-61
2023/08/13 00:05:29;;;;;;;4.43;4.00;;;;;;;;;;6155906;23;20528;-61
2023/08/13 00:07:55;;;;;;;4.90;4.60;;;;;;;;;;6155994;23;20494;-61
2023/08/13 00:10:22;;;;;;;5.03;4.80;;;;;;;;;;6156000;23;20497;-61
2023/08/13 00:12:49;;;;;;;5.27;4.87;;;;;;;;;;6155653;23;20966;-61
2023/08/13 00:15:16;;;;;;;4.80;4.50;;;;;;;;;;6155927;23;20430;-61
2023/08/13 00:17:43;;;;;;;6.00;5.50;;;;;;;;;;6155821;23;20489;-61
2023/08/13 00:20:13;;;;;;;4.90;4.53;;;;;;;;;;6155964;23;20493;-61
2023/08/13 00:22:40;;;;;;;4.87;4.57;;;;;;;;;;6155682;23;20430;-61
2023/08/13 00:25:07;;;;;;;4.00;3.80;;;;;;;;;;6155951;23;20414;-61
2023/08/13 00:27:34;;;;;;;5.83;4.30;;;;;;;;;;6155853;23;20462;-61
2023/08/13 00:30:01;;;;;;;6.00;4.67;;;;;;;;;;6155925;23;20810;-61
2023/08/13 00:32:28;;;;;;;4.57;4.20;;;;;;;;;;6155927;23;20480;-61
2023/08/13 00:34:55;;;;;;;4.03;3.80;;;;;;;;;;6155926;23;20494;-61
2023/08/13 00:37:23;;;;;;;5.03;4.73;;;;;;;;;;6155915;23;20490;-61
2023/08/13 00:39:50;;;;;;;4.20;3.80;;;;;;;;;;6155742;23;20533;-61
2023/08/13 00:42:18;;;;;;;4.40;4.00;;;;;;;;;;6155846;23;20514;-61
2023/08/13 00:44:44;;;;;;;4.27;3.97;;;;;;;;;;6155805;23;20457;-61
2023/08/13 00:47:11;;;;;;;4.87;4.57;;;;;;;;;;6155772;23;20410;-61
2023/08/13 00:49:40;;;;;;;6.30;4.73;;;;;;;;;;6155533;23;20522;-61
2023/08/13 00:52:08;;;;;;;5.00;4.60;;;;;;;;;;6165536;23;20482;-61
2023/08/13 00:54:37;;;;;;;4.17;3.97;;;;;;;;;;6156460;23;20406;-61
2023/08/13 00:57:04;;;;;;;4.33;4.00;;;;;;;;;;6157429;23;20490;-61
2023/08/13 00:59:33;;;;;;;4.10;3.70;;;;;;;;;;6157394;23;20528;-61
2023/08/13 01:02:00;;;;;;;4.60;4.20;;;;;;;;;;6157316;23;20779;-61
2023/08/13 01:04:29;;;;;;;4.73;4.33;;;;;;;;;;6157529;23;20489;-61
2023/08/13 01:07:02;;;;;;;4.60;4.20;;;;;;;;;;6157344;23;20485;-61
2023/08/13 01:09:33;;;;;;;4.30;4.10;;;;;;;;;;6167109;23;20423;-61
2023/08/13 01:12:07;;;;;;;4.30;4.07;;;;;;;;;;6167233;23;20434;-61
2023/08/13 01:14:36;;;;;;;4.83;3.73;;;;;;;;;;6167166;23;20951;-61
2023/08/13 01:17:05;;;;;;;3.67;3.47;;;;;;;;;;6157282;23;20489;-61
2023/08/13 01:19:32;;;;;;;3.80;3.60;;;;;;;;;;6157160;23;20828;-61
2023/08/13 01:21:59;;;;;;;6.43;3.70;;;;;;;;;;6157334;23;20494;-61
2023/08/13 01:24:27;;;;;;;3.90;3.50;;;;;;;;;;6157255;23;20438;-61
2023/08/13 01:27:00;;;;;;;4.70;4.10;;;;;;;;;;6157164;23;20415;-61
2023/08/13 01:29:31;;;;;;;4.60;3.87;;;;;;;;;;6167050;23;20422;-61
2023/08/13 01:32:01;;;;;;;3.67;3.47;;;;;;;;;;6166920;23;20406;-61
2023/08/13 01:34:28;;;;;;;4.57;3.20;;;;;;;;;;6156643;23;20445;-61
2023/08/13 01:36:55;;;;;;;3.70;3.50;;;;;;;;;;6157270;23;20805;-61
2023/08/13 01:39:23;;;;;;;3.93;3.67;;;;;;;;;;6157134;23;20531;-61
2023/08/13 01:41:53;;;;;;;4.03;3.80;;;;;;;;;;6157053;23;20804;-61
2023/08/13 01:44:20;;;;;;;5.00;4.60;;;;;;;;;;6156938;23;20498;-61
2023/08/13 01:46:47;;;;;;;3.90;3.50;;;;;;;;;;6157116;23;20421;-61
2023/08/13 01:49:14;;;;;;;4.20;4.00;;;;;;;;;;6156485;23;20978;-61
2023/08/13 01:51:43;;;;;;;4.00;3.67;;;;;;;;;;6166779;23;20751;-61
2023/08/13 01:54:12;;;;;;;3.60;3.40;;;;;;;;;;6156918;23;20493;-61
2023/08/13 01:56:39;;;;;;;3.23;3.13;;;;;;;;;;6156882;23;20407;-61
2023/08/13 01:59:07;;;;;;;3.80;3.60;;;;;;;;;;6156882;23;20863;-61
2023/08/13 02:01:34;;;;;;;3.93;3.47;;;;;;;;;;6156865;23;20756;-61
2023/08/13 02:04:03;;;;;;;4.07;3.87;;;;;;;;;;6156910;23;20493;-61
2023/08/13 02:06:33;;;;;;;4.80;3.70;;;;;;;;;;6156555;23;20505;-61
2023/08/13 02:09:00;;;;;;;4.00;3.80;;;;;;;;;;6156695;23;20413;-61
2023/08/13 02:11:26;;;;;;;3.37;3.17;;;;;;;;;;6156849;23;20403;-61
2023/08/13 02:13:53;;;;;;;4.80;4.40;;;;;;;;;;6156805;23;20498;-61
2023/08/13 02:16:22;;;;;;;4.47;4.17;;;;;;;;;;6156825;23;20430;-61
2023/08/13 02:18:49;;;;;;;4.60;4.20;;;;;;;;;;6156570;23;20485;-61
2023/08/13 02:21:16;;;;;;;4.00;3.80;;;;;;;;;;6156744;23;20498;-61
2023/08/13 02:23:42;;;;;;;4.40;4.10;;;;;;;;;;6156357;23;20490;-61
2023/08/13 02:26:09;;;;;;;3.90;3.70;;;;;;;;;;6156851;23;20808;-61
2023/08/13 02:28:36;;;;;;;5.33;4.00;;;;;;;;;;6156690;23;20446;-61
2023/08/13 02:31:03;;;;;;;4.13;3.73;;;;;;;;;;6156683;23;20442;-61
2023/08/13 02:33:31;;;;;;;3.70;3.50;;;;;;;;;;6156640;23;20495;-61
2023/08/13 02:36:00;;;;;;;4.40;4.10;;;;;;;;;;6156565;23;20457;-61
2023/08/13 02:38:27;;;;;;;3.67;3.47;;;;;;;;;;6156485;23;20799;-61
2023/08/13 02:40:54;;;;;;;4.27;3.87;;;;;;;;;;6156400;23;20542;-61
2023/08/13 02:43:21;;;;;;;4.80;4.30;;;;;;;;;;6156598;23;20493;-61
2023/08/13 02:45:48;;;;;;;4.00;3.70;;;;;;;;;;6156516;23;20482;-61
2023/08/13 02:48:15;;;;;;;5.20;4.37;;;;;;;;;;6156427;23;20494;-61
2023/08/13 02:50:43;;;;;;;4.50;3.73;;;;;;;;;;6156103;23;20522;-61
2023/08/13 02:53:10;;;;;;;3.90;3.70;;;;;;;;;;6156467;23;20498;-61
2023/08/13 02:55:36;;;;;;;4.50;4.20;;;;;;;;;;6156484;23;20493;-61
2023/08/13 02:58:03;;;;;;;4.47;4.17;;;;;;;;;;6156500;23;20497;-62
2023/08/13 03:00:30;;;;;;;4.17;3.80;;;;;;;;;;6156340;23;20525;-61
2023/08/13 03:02:57;;;;;;;4.93;4.53;;;;;;;;;;6156043;23;20942;-61
2023/08/13 03:05:24;;;;;;;4.37;4.07;;;;;;;;;;6156364;23;20787;-61
2023/08/13 03:07:52;;;;;;;4.10;3.80;;;;;;;;;;6156429;23;20490;-61
2023/08/13 03:10:19;;;;;;;3.93;3.53;;;;;;;;;;6156283;23;20515;-61
2023/08/13 03:12:46;;;;;;;4.50;4.10;;;;;;;;;;6156297;23;20491;-61
2023/08/13 03:15:13;;;;;;;4.20;3.90;;;;;;;;;;6156305;23;20490;-61
2023/08/13 03:17:40;;;;;;;4.17;3.87;;;;;;;;;;6155928;23;20507;-61
2023/08/13 03:20:09;;;;;;;4.90;4.40;;;;;;;;;;6156216;23;20466;-61
2023/08/13 03:22:39;;;;;;;3.87;3.67;;;;;;;;;;6156038;23;20442;-61
2023/08/13 03:25:07;;;;;;;4.63;4.30;;;;;;;;;;6156065;23;20417;-61
2023/08/13 03:27:34;;;;;;;4.80;4.50;;;;;;;;;;6156050;23;20494;-61
2023/08/13 03:30:01;;;;;;;4.30;3.90;;;;;;;;;;6156269;23;20985;-61
2023/08/13 03:32:28;;;;;;;3.93;3.63;;;;;;;;;;6156252;23;20443;-61
2023/08/13 03:34:55;;;;;;;4.40;4.20;;;;;;;;;;6156162;23;20411;-61
2023/08/13 03:37:22;;;;;;;3.50;3.30;;;;;;;;;;6156122;23;20407;-61
2023/08/13 03:39:49;;;;;;;4.47;4.10;;;;;;;;;;6156148;23;20462;-61
2023/08/13 03:42:19;;;;;;;4.27;3.93;;;;;;;;;;6156100;23;20493;-61
2023/08/13 03:44:48;;;;;;;5.23;4.30;;;;;;;;;;6155626;23;20962;-61
2023/08/13 03:47:15;;;;;;;5.20;4.67;;;;;;;;;;6155601;23;20973;-61
2023/08/13 03:49:42;;;;;;;5.80;4.80;;;;;;;;;;6155841;23;20808;-61
2023/08/13 03:52:09;;;;;;;4.77;4.47;;;;;;;;;;6165809;23;20483;-61
2023/08/13 03:54:36;;;;;;;3.90;3.70;;;;;;;;;;6156061;23;20490;-61
2023/08/13 03:57:03;;;;;;;4.57;4.17;;;;;;;;;;6156063;23;20490;-61
2023/08/13 03:59:31;;;;;;;3.90;3.70;;;;;;;;;;6155961;23;20407;-61
2023/08/13 04:01:58;;;;;;;4.47;4.17;;;;;;;;;;6156014;23;20495;-61
2023/08/13 04:04:25;;;;;;;4.23;3.93;;;;;;;;;;6155962;23;20414;-61
2023/08/13 04:06:52;;;;;;;3.90;3.60;;;;;;;;;;6155953;23;20490;-61
2023/08/13 04:09:19;;;;;;;4.00;3.63;;;;;;;;;;6156054;23;20490;-61
2023/08/13 04:11:46;;;;;;;3.90;3.60;;;;;;;;;;6155918;23;20481;-61
2023/08/13 04:14:13;;;;;;;4.63;4.23;;;;;;;;;;6156011;23;20494;-61
2023/08/13 04:16:41;;;;;;;4.23;4.03;;;;;;;;;;6155984;23;20490;-61
2023/08/13 04:19:10;;;;;;;4.67;4.37;;;;;;;;;;6155842;23;20494;-61
2023/08/13 04:21:37;;;;;;;7.70;4.50;;;;;;;;;;6155724;23;20521;-61
2023/08/13 04:24:04;;;;;;;8.20;4.13;;;;;;;;;;6155999;23;20434;-61
2023/08/13 04:26:33;;;;;;;3.97;3.67;;;;;;;;;;6155840;23;20486;-61
2023/08/13 04:29:02;;;;;;;4.43;4.23;;;;;;;;;;6156887;23;20407;-61
2023/08/13 04:31:29;;;;;;;4.77;4.37;;;;;;;;;;6157632;23;20494;-61
2023/08/13 04:33:57;;;;;;;4.03;3.83;;;;;;;;;;6157748;23;20494;-61
2023/08/13 04:36:24;;;;;;;4.03;3.83;;;;;;;;;;6157765;23;20438;-62
2023/08/13 04:38:51;;;;;;;3.93;3.73;;;;;;;;;;6157791;23;20497;-61
2023/08/13 04:41:17;;;;;;;4.07;3.87;;;;;;;;;;6157647;23;20519;-61
2023/08/13 04:43:44;;;;;;;3.93;3.73;;;;;;;;;;6157681;23;20784;-61
2023/08/13 04:46:11;;;;;;;4.53;4.10;;;;;;;;;;6157639;23;20490;-61
2023/08/13 04:48:42;;;;;;;4.67;4.23;;;;;;;;;;6157246;23;20889;-61
2023/08/13 04:51:12;;;;;;;5.43;4.97;;;;;;;;;;6157131;23;20461;-61
2023/08/13 04:53:38;;;;;;;4.60;4.17;;;;;;;;;;6157446;23;20445;-61
2023/08/13 04:56:06;;;;;;;3.87;3.57;;;;;;;;;;6157620;23;20407;-61
2023/08/13 04:58:33;;;;;;;4.20;3.90;;;;;;;;;;6157140;23;20890;-61
2023/08/13 05:01:00;;;;;;;5.50;5.20;;;;;;;;;;6157478;23;20819;-61
2023/08/13 05:03:27;;;;;;;4.10;3.90;;;;;;;;;;6157541;23;20498;-61
2023/08/13 05:05:56;;;;;;;4.33;3.93;;;;;;;;;;6157517;23;20494;-61
2023/08/13 05:08:24;;;;;;;3.43;3.23;;;;;;;;;;6157293;23;20494;-61
2023/08/13 05:10:51;;;;;;;4.80;4.40;;;;;;;;;;6157387;23;20494;-62
2023/08/13 05:13:18;;;;;;;4.17;3.90;;;;;;;;;;6157429;23;20491;-61
2023/08/13 05:15:45;;;;;;;6.63;4.80;;;;;;;;;;6157374;23;20482;-61
2023/08/13 05:18:12;;;;;;;4.20;3.97;;;;;;;;;;6157413;23;20739;-61
2023/08/13 05:20:39;;;;;;;3.00;2.90;;;;;;;;;;6157252;23;20509;-61
2023/08/13 05:23:06;;;;;;;4.17;3.63;;;;;;;;;;6157301;23;20494;-61
2023/08/13 05:25:38;;;;;;;4.07;3.87;;;;;;;;;;6157246;23;20489;-61
2023/08/13 05:28:05;;;;;;;4.63;4.27;;;;;;;;;;6167028;23;20723;-62
2023/08/13 05:30:34;;;;;;;4.80;4.47;;;;;;;;;;6156835;23;21087;-61
2023/08/13 05:33:01;;;;;;;4.73;4.20;;;;;;;;;;6157066;23;20411;-61
2023/08/13 05:35:28;;;;;;;4.30;3.70;;;;;;;;;;6157177;23;20407;-61
2023/08/13 05:37:55;;;;;;;4.40;4.10;;;;;;;;;;6157199;23;20414;-61
2023/08/13 05:40:22;;;;;;;4.17;3.87;;;;;;;;;;6156267;23;21060;-61
2023/08/13 05:42:50;;;;;;;3.77;3.50;;;;;;;;;;6157104;23;20800;-61
2023/08/13 05:45:17;;;;;;;3.70;3.50;;;;;;;;;;6156983;23;20498;-61
2023/08/13 05:47:44;;;;;;;3.83;3.63;;;;;;;;;;6157156;23;20411;-61
2023/08/13 05:50:11;;;;;;;3.90;3.60;;;;;;;;;;6156890;23;20458;-61
2023/08/13 05:52:38;;;;;;;4.33;3.93;;;;;;;;;;6157026;23;20775;-61
2023/08/13 05:55:05;;;;;;;8.20;3.27;;;;;;;;;;6157033;23;20407;-61
2023/08/13 05:57:32;;;;;;;4.17;3.13;;;;;;;;;;6156961;23;20489;-61
2023/08/13 06:00:05;;;;;;;2.53;2.33;;;;;;;;;;6156974;23;20493;-61
2023/08/13 06:02:32;;;;;;;2.90;2.70;;;;;;;;;;6166650;23;20395;-61
2023/08/13 06:04:59;;;;;;;2.70;2.30;;;;;;;;;;6156981;23;20485;-61
2023/08/13 06:07:26;;;;;;;2.70;2.50;;;;;;;;;;6156843;23;20403;-61
2023/08/13 06:09:53;;;;;;;2.97;2.73;;;;;;;;;;6156909;23;20407;-61
2023/08/13 06:12:20;;;;;;;3.37;2.37;;;;;;;;;;6156859;23;20494;-61
2023/08/13 06:14:46;;;;;;;3.17;2.87;;;;;;;;;;6156775;23;20486;-61
2023/08/13 06:17:15;;;;;;;2.73;2.53;;;;;;;;;;6156840;23;20486;-61
2023/08/13 06:19:44;;;;;;;2.13;2.03;;;;;;;;;;6156749;23;20485;-61
2023/08/13 06:22:11;;;;;;;2.80;2.47;;;;;;;;;;6156179;23;21037;-61
2023/08/13 06:24:38;;;;;;;2.60;2.50;;;;;;;;;;6156738;23;20493;-61
2023/08/13 06:27:05;;;;;;;2.40;2.20;;;;;;;;;;6156786;23;20490;-61
2023/08/13 06:29:32;;;;;;;3.00;1.90;;;;;;;;;;6156674;23;20679;-61
2023/08/13 06:31:59;;;;;;;3.43;2.10;;;;;;;;;;6156320;23;20926;-61
2023/08/13 06:34:27;;;;;;;3.73;2.47;;;;;;;;;;6156588;23;20824;-61
2023/08/13 06:36:57;;;;;;;2.53;2.33;;;;;;;;;;6156507;23;20760;-61
2023/08/13 06:39:24;;;;;;;2.80;2.50;;;;;;;;;;6156319;23;20410;-61
2023/08/13 06:41:51;;;;;;;4.67;3.23;;;;;;;;;;6156499;23;20442;-62
2023/08/13 06:44:19;;;;;;;3.40;2.33;;;;;;;;;;6156620;23;20953;-61
2023/08/13 06:46:46;;;;;;;3.50;2.00;;;;;;;;;;6156402;23;20507;-61
2023/08/13 06:49:13;;;;;;;2.83;2.40;;;;;;;;;;6156283;23;20435;-61
2023/08/13 06:51:41;;;;;;;2.67;2.47;;;;;;;;;;6166247;23;20507;-61
2023/08/13 06:54:08;;;;;;;3.60;2.50;;;;;;;;;;6156420;23;20490;-61
2023/08/13 06:56:36;;;;;;;3.23;2.13;;;;;;;;;;6156083;23;20960;-61
2023/08/13 06:59:02;;;;;;;3.13;2.13;;;;;;;;;;6156462;23;20407;-61
2023/08/13 07:01:30;;;;;;;2.30;2.20;;;;;;;;;;6156313;23;20510;-61
2023/08/13 07:03:57;;;;;;;2.70;2.50;;;;;;;;;;6156363;23;20407;-62
2023/08/13 07:06:23;;;;;;;3.00;2.17;;;;;;;;;;6156400;23;20945;-61
2023/08/13 07:08:52;;;;;;;3.80;2.87;;;;;;;;;;6156348;23;20441;-61
2023/08/13 07:11:19;;;;;;;2.70;2.43;;;;;;;;;;6156309;23;20406;-61
2023/08/13 07:13:46;;;;;;;2.57;2.30;;;;;;;;;;6156213;23;20407;-62
2023/08/13 07:16:13;;;;;;;3.70;2.50;;;;;;;;;;6156297;23;20449;-61
2023/08/13 07:18:42;;;;;;;2.57;2.30;;;;;;;;;;6156091;23;20411;-61
2023/08/13 07:21:09;;;;;;;4.63;2.50;;;;;;;;;;6156094;23;20474;-62
2023/08/13 07:23:36;;;;;;;2.70;2.50;;;;;;;;;;6156227;23;20433;-61
2023/08/13 07:26:05;;;;;;;5.50;2.37;;;;;;;;;;6165498;23;20414;-61
2023/08/13 07:28:34;;;;;;;3.70;2.30;;;;;;;;;;6156099;23;20543;-62
2023/08/13 07:31:03;;;;;;;4.30;2.10;;;;;;;;;;6155996;23;20411;-62
2023/08/13 07:33:32;;;;;;;2.53;2.30;;;;;;;;;;6156030;23;20407;-61
2023/08/13 07:36:00;;;;;;;7.70;2.93;;;;;;;;;;6155902;23;20495;-61
2023/08/13 07:38:27;;;;;;;4.57;2.33;;;;;;;;;;6155942;23;20418;-61
2023/08/13 07:40:55;;;;;;;4.43;2.83;;;;;;;;;;6155897;23;20439;-61
2023/08/13 07:43:23;;;;;;;3.00;2.50;;;;;;;;;;6155651;23;20886;-61
2023/08/13 07:45:52;;;;;;;4.20;2.77;;;;;;;;;;6155964;23;20731;-61
2023/08/13 07:48:20;;;;;;;5.30;1.90;;;;;;;;;;6155826;23;20407;-62
2023/08/13 07:50:50;;;;;;;4.07;2.17;;;;;;;;;;6155538;23;20509;-61
2023/08/13 07:53:17;;;;;;;3.07;2.33;;;;;;;;;;6165698;23;20402;-61
2023/08/13 07:55:46;;;;;;;4.83;1.83;;;;;;;;;;6155958;23;20414;-61
2023/08/13 07:58:15;;;;;;;4.63;2.43;;;;;;;;;;6155966;23;20447;-61
2023/08/13 08:00:46;;;;;;;2.33;1.80;;;;;;;;;;6155896;23;20486;-61
2023/08/13 08:03:14;;;;;;;2.70;2.00;;;;;;;;;;6156314;23;20451;-61
2023/08/13 08:05:41;;;;;;;1.97;1.77;;;;;;;;;;6157930;23;20523;-61
2023/08/13 08:08:08;;;;;;;5.33;2.53;;;;;;;;;;6157872;23;20727;-61
2023/08/13 08:10:35;;;;;;;2.87;1.70;;;;;;;;;;6157912;23;20417;-62
2023/08/13 08:13:02;;;;;;;3.20;2.33;;;;;;;;;;6157934;23;20439;-61
2023/08/13 08:15:29;;;;;;;5.10;2.30;;;;;;;;;;6157722;23;20410;-61
2023/08/13 08:17:57;;;;;;;3.20;2.00;;;;;;;;;;6157850;23;20490;-61
2023/08/13 08:20:24;;;;;;;8.10;2.03;;;;;;;;;;6157771;23;20878;-61
2023/08/13 08:22:51;;;;;;;3.97;2.07;;;;;;;;;;6157736;23;20834;-61
2023/08/13 08:25:19;;;;;;;3.47;2.20;;;;;;;;;;6157869;23;20434;-61
2023/08/13 08:27:46;;;;;;;5.27;1.90;;;;;;;;;;6157677;23;20441;-61
2023/08/13 08:30:15;;;;;;;5.60;2.40;;;;;;;;;;6157772;23;20544;-61
2023/08/13 08:32:42;;;;;;;1.73;1.40;;;;;;;;;;6157612;23;20509;-61
2023/08/13 08:35:10;;;;;;;4.67;1.87;;;;;;;;;;6157668;23;20490;-61
2023/08/13 08:37:37;;;;;;;3.23;1.93;;;;;;;;;;6157252;23;21062;-61
2023/08/13 08:40:05;;;;;;;4.50;2.00;;;;;;;;;;6157540;23;20438;-61
2023/08/13 08:42:32;;;;;;;3.13;1.70;;;;;;;;;;6157519;23;20803;-61
2023/08/13 08:45:00;;;;;;;3.10;1.93;;;;;;;;;;6157550;23;20446;-61
2023/08/13 08:47:27;;;;;;;5.00;2.00;;;;;;;;;;6157493;23;20414;-61
2023/08/13 08:49:55;;;;;;;3.40;2.00;;;;;;;;;;6157025;23;20530;-62
2023/08/13 08:52:23;;;;;;;2.87;2.17;;;;;;;;;;6157447;23;20438;-62
2023/08/13 08:54:52;;;;;;;3.23;2.13;;;;;;;;;;6157827;23;20490;-61
2023/08/13 08:57:19;;;;;;;3.97;1.40;;;;;;;;;;6157428;23;20497;-62
2023/08/13 08:59:48;;;;;;;2.30;1.43;;;;;;;;;;6157513;23;20720;-61
2023/08/13 09:02:15;;;;;;;3.73;1.90;;;;;;;;;;6157326;23;20529;-61
2023/08/13 09:04:42;;;;;;;3.20;1.73;;;;;;;;;;6157837;23;20790;-62
2023/08/13 09:07:09;;;;;;;5.70;1.93;;;;;;;;;;6157429;23;20438;-61
2023/08/13 09:09:43;;;;;;;1.70;1.50;;;;;;;;;;6157403;23;20414;-61
2023/08/13 09:12:10;;;;;;;2.60;1.87;;;;;;;;;;6167115;23;20395;-61
2023/08/13 09:14:37;;;;;;;4.47;1.63;;;;;;;;;;6156727;23;20461;-62
2023/08/13 09:17:06;;;;;;;2.43;2.20;;;;;;;;;;6157354;23;20982;-61
2023/08/13 09:19:36;;;;;;;3.97;3.00;;;;;;;;;;6157143;23;20962;-61
2023/08/13 09:22:03;;;;;;;2.40;1.80;;;;;;;;;;6157013;23;20510;-62
2023/08/13 09:24:33;;;;;;;2.90;1.60;;;;;;;;;;6156873;23;20953;-62
2023/08/13 09:27:02;;;;;;;4.03;1.83;;;;;;;;;;6157083;23;20429;-61
2023/08/13 09:29:31;;;;;;;1.80;1.70;;;;;;;;;;6157139;23;20498;-62
2023/08/13 09:31:59;;;;;;;3.20;2.30;;;;;;;;;;6157060;23;20801;-62
2023/08/13 09:34:26;;;;;;;4.20;2.10;;;;;;;;;;6157129;23;20493;-61
2023/08/13 09:36:54;;;;;;;3.07;1.63;;;;;;;;;;6157244;23;20486;-61
2023/08/13 09:39:20;;;;;;;4.23;1.83;;;;;;;;;;6156969;23;20434;-61
2023/08/13 09:41:49;;;;;;;4.40;2.00;;;;;;;;;;6156917;23;20490;-61
2023/08/13 09:44:21;;;;;;;3.77;1.57;;;;;;;;;;6156910;23;20493;-61
2023/08/13 09:46:49;;;;;;;3.00;1.70;;;;;;;;;;6166811;23;20697;-62
2023/08/13 09:49:17;;;;;;;3.30;1.93;;;;;;;;;;6156767;23;20886;-62
2023/08/13 09:51:45;;;;;;;4.40;1.57;;;;;;;;;;6166601;23;20830;-61
2023/08/13 09:54:14;;;;;;;3.13;1.70;;;;;;;;;;6156931;23;20413;-61
2023/08/13 09:56:41;;;;;;;4.17;2.77;;;;;;;;;;6156820;23;20443;-61
2023/08/13 09:59:08;;;;;;;1.90;1.80;;;;;;;;;;6156808;23;20494;-61
2023/08/13 10:01:40;;;;;;;2.50;1.70;;;;;;;;;;6156940;23;20435;-61
2023/08/13 10:04:07;;;;;;;1.90;1.57;;;;;;;;;;6166680;23;20513;-61
2023/08/13 10:06:34;;;;;;;3.37;1.70;;;;;;;;;;6156822;23;20434;-61
2023/08/13 10:09:01;;;;;;;2.80;1.63;;;;;;;;;;6156744;23;20793;-62
2023/08/13 10:11:30;;;;;;;3.40;1.80;;;;;;;;;;6156684;23;20403;-61
2023/08/13 10:13:57;;;;;;;4.20;1.67;;;;;;;;;;6156566;23;20454;-62
2023/08/13 10:16:24;;;;;;;4.40;2.23;;;;;;;;;;6157051;23;20790;-61
2023/08/13 10:18:53;;;;;;;1.93;1.60;;;;;;;;;;6156632;23;20418;-61
2023/08/13 10:21:35;;;;;;;3.60;2.30;;;;;;;;;;6156630;23;20494;-62
2023/08/13 10:24:05;;;;;;;2.10;1.87;;;;;;;;;;6166374;23;20522;-61
2023/08/13 10:26:32;;;;;;;2.43;1.70;;;;;;;;;;6166277;23;20425;-61
2023/08/13 10:28:59;;;;;;;2.67;1.83;;;;;;;;;;6156652;23;20407;-61
2023/08/13 10:31:30;;;;;;;2.83;1.77;;;;;;;;;;6156687;23;20490;-61
2023/08/13 10:34:03;;;;;;;3.13;1.70;;;;;;;;;;6166370;23;20465;-61
2023/08/13 10:36:48;;;;;;;4.40;1.83;;;;;;;;;;6156426;23;20446;-62
2023/08/13 10:39:37;;;;;;;2.80;1.80;;;;;;;;;;6156671;23;20493;-61
2023/08/13 10:42:07;;;;;;;2.40;1.70;;;;;;;;;;6166203;23;20716;-61
2023/08/13 10:44:40;;;;;;;3.00;1.70;;;;;;;;;;6155821;23;20970;-61
2023/08/13 10:47:07;;;;;;;2.50;1.67;;;;;;;;;;6166219;23;20402;-61
2023/08/13 10:49:37;;;;;;;2.90;1.70;;;;;;;;;;6156232;23;20510;-61
2023/08/13 10:52:04;;;;;;;3.10;1.90;;;;;;;;;;6166301;23;20395;-61
2023/08/13 10:54:31;;;;;;;2.83;1.37;;;;;;;;;;6156418;23;20499;-61
2023/08/13 10:56:59;;;;;;;3.10;1.90;;;;;;;;;;6156234;23;20407;-61
2023/08/13 10:59:32;;;;;;;2.30;1.40;;;;;;;;;;6156268;23;20510;-62
2023/08/13 11:02:15;;;;;;;3.00;1.70;;;;;;;;;;6156471;23;20490;-61
2023/08/13 11:04:44;;;;;;;2.60;1.93;;;;;;;;;;6156203;23;20525;-61
2023/08/13 11:07:11;;;;;;;1.70;1.27;;;;;;;;;;6156154;23;20407;-62
2023/08/13 11:09:39;;;;;;;2.97;2.20;;;;;;;;;;6156293;23;20414;-61
2023/08/13 11:12:06;;;;;;;3.60;1.70;;;;;;;;;;6156210;23;20446;-61
2023/08/13 11:14:33;;;;;;;2.27;1.80;;;;;;;;;;6156646;23;20723;-61
2023/08/13 11:17:00;;;;;;;4.60;2.00;;;;;;;;;;6156248;23;20735;-61
2023/08/13 11:19:27;;;;;;;3.23;1.90;;;;;;;;;;6156180;23;20407;-61
2023/08/13 11:21:57;;;;;;;2.00;1.30;;;;;;;;;;6156081;23;20510;-62
2023/08/13 11:24:25;;;;;;;2.03;1.57;;;;;;;;;;6155767;23;20800;-62
2023/08/13 11:26:55;;;;;;;1.77;1.67;;;;;;;;;;6155745;23;20962;-61
2023/08/13 11:29:22;;;;;;;2.17;1.60;;;;;;;;;;6155951;23;20490;-61
2023/08/13 11:31:49;;;;;;;2.60;1.33;;;;;;;;;;6156163;23;20497;-61
2023/08/13 11:34:17;;;;;;;2.00;1.63;;;;;;;;;;6156084;23;20738;-61
2023/08/13 11:36:46;;;;;;;2.93;1.93;;;;;;;;;;6156147;23;20494;-61
2023/08/13 11:39:16;;;;;;;2.50;1.80;;;;;;;;;;6155623;23;20438;-61
2023/08/13 11:41:44;;;;;;;2.40;2.00;;;;;;;;;;6155861;23;20493;-61
2023/08/13 11:44:11;;;;;;;3.07;1.80;;;;;;;;;;6155927;23;20529;-61
2023/08/13 11:46:54;;;;;;;2.60;1.60;;;;;;;;;;6155602;23;20406;-61
2023/08/13 11:49:21;;;;;;;5.50;2.40;;;;;;;;;;6155744;23;20763;-62
2023/08/13 11:51:48;;;;;;;5.70;1.50;;;;;;;;;;6165643;23;20391;-62
2023/08/13 11:54:17;;;;;;;2.30;2.10;;;;;;;;;;6155921;23;20407;-62
2023/08/13 11:56:45;;;;;;;2.33;2.13;;;;;;;;;;6155807;23;20789;-62
2023/08/13 11:59:13;;;;;;;3.00;2.20;;;;;;;;;;6155897;23;20514;-62
2023/08/13 12:01:40;;;;;;;2.70;2.23;;;;;;;;;;6155734;23;20417;-62
2023/08/13 12:04:08;;;;;;;3.07;2.00;;;;;;;;;;6155821;23;20443;-61
2023/08/13 12:06:35;;;;;;;2.73;1.80;;;;;;;;;;6155858;23;20407;-61
2023/08/13 12:09:03;;;;;;;3.57;2.00;;;;;;;;;;6155789;23;20413;-61
2023/08/13 12:11:30;;;;;;;2.17;1.57;;;;;;;;;;6155790;23;20721;-61
2023/08/13 12:14:04;;;;;;;3.57;1.70;;;;;;;;;;6155977;23;20506;-62
2023/08/13 12:16:31;;;;;;;1.97;1.50;;;;;;;;;;6165508;23;20474;-61
2023/08/13 12:18:58;;;;;;;2.90;1.83;;;;;;;;;;6155868;23;20490;-61
2023/08/13 12:21:25;;;;;;;3.40;2.10;;;;;;;;;;6155961;23;20738;-62
2023/08/13 12:23:52;;;;;;;2.87;1.83;;;;;;;;;;6155738;23;20585;-61
2023/08/13 12:26:19;;;;;;;1.93;1.70;;;;;;;;;;6155855;23;20743;-62
2023/08/13 12:28:50;;;;;;;3.90;1.87;;;;;;;;;;6155707;23;20407;-61
2023/08/13 12:31:18;;;;;;;3.10;2.30;;;;;;;;;;6165623;23;20873;-61
2023/08/13 12:33:45;;;;;;;1.60;1.47;;;;;;;;;;6155802;23;20411;-61
2023/08/13 12:36:12;;;;;;;2.00;1.87;;;;;;;;;;6155744;23;20406;-61
2023/08/13 12:38:40;;;;;;;3.37;2.20;;;;;;;;;;6155744;23;20739;-61
2023/08/13 12:41:07;;;;;;;3.23;1.80;;;;;;;;;;6155631;23;20438;-62
2023/08/13 12:43:34;;;;;;;2.47;1.60;;;;;;;;;;6155672;23;20434;-61
2023/08/13 12:46:01;;;;;;;1.90;1.70;;;;;;;;;;6155789;23;20498;-61
2023/08/13 12:48:32;;;;;;;3.53;1.70;;;;;;;;;;6155811;23;20490;-61
2023/08/13 12:50:59;;;;;;;2.30;2.07;;;;;;;;;;6159102;23;20430;-61
2023/08/13 12:53:26;;;;;;;2.50;1.90;;;;;;;;;;6157495;23;20414;-61
2023/08/13 12:55:55;;;;;;;2.70;1.67;;;;;;;;;;6157355;23;20410;-61
2023/08/13 12:58:22;;;;;;;3.30;2.03;;;;;;;;;;6157362;23;20798;-61
2023/08/13 13:00:49;;;;;;;5.77;1.73;;;;;;;;;;6157464;23;20497;-61
2023/08/13 13:03:16;;;;;;;4.00;1.93;;;;;;;;;;6157284;23;20490;-61
2023/08/13 13:05:44;;;;;;;2.83;1.67;;;;;;;;;;6156994;23;20969;-61
2023/08/13 13:08:11;;;;;;;2.63;1.83;;;;;;;;;;6157232;23;20493;-62
2023/08/13 13:10:37;;;;;;;1.87;1.50;;;;;;;;;;6157389;23;20794;-62
2023/08/13 13:13:06;;;;;;;2.80;2.20;;;;;;;;;;6157418;23;20438;-62
2023/08/13 13:15:35;;;;;;;4.37;2.07;;;;;;;;;;6157237;23;20410;-61
2023/08/13 13:18:02;;;;;;;3.67;1.73;;;;;;;;;;6157138;23;20490;-61
2023/08/13 13:20:29;;;;;;;1.60;1.37;;;;;;;;;;6157294;23;20490;-62
2023/08/13 13:22:57;;;;;;;2.10;1.77;;;;;;;;;;6157314;23;20489;-61
2023/08/13 13:25:24;;;;;;;3.27;1.83;;;;;;;;;;6157041;23;20526;-61
2023/08/13 13:27:51;;;;;;;2.07;1.87;;;;;;;;;;6156773;23;20974;-62
2023/08/13 13:30:18;;;;;;;1.63;1.53;;;;;;;;;;6157216;23;20406;-61
2023/08/13 13:32:45;;;;;;;3.57;1.53;;;;;;;;;;6157091;23;20402;-61
2023/08/13 13:35:12;;;;;;;4.97;2.20;;;;;;;;;;6156644;23;20490;-62
2023/08/13 13:37:39;;;;;;;3.10;2.73;;;;;;;;;;6156999;23;20407;-62
2023/08/13 13:40:08;;;;;;;2.50;1.70;;;;;;;;;;6157202;23;20497;-61
2023/08/13 13:42:35;;;;;;;1.97;1.60;;;;;;;;;;6156820;23;20485;-61
2023/08/13 13:45:02;;;;;;;2.33;1.70;;;;;;;;;;6156900;23;20443;-61
2023/08/13 13:47:29;;;;;;;2.43;1.60;;;;;;;;;;6157053;23;20501;-61
2023/08/13 13:50:00;;;;;;;2.40;1.87;;;;;;;;;;6156496;23;21021;-62
2023/08/13 13:52:27;;;;;;;2.80;1.90;;;;;;;;;;6166696;23;20482;-61
2023/08/13 13:54:55;;;;;;;1.73;1.60;;;;;;;;;;6156995;23;20438;-62
2023/08/13 13:57:25;;;;;;;2.40;2.20;;;;;;;;;;6156814;23;20709;-61
2023/08/13 13:59:52;;;;;;;2.37;1.90;;;;;;;;;;6156720;23;20406;-61
2023/08/13 14:02:18;;;;;;;3.80;1.60;;;;;;;;;;6156629;23;20752;-62
2023/08/13 14:04:45;;;;;;;2.23;2.00;;;;;;;;;;6156799;23;20534;-62
2023/08/13 14:07:15;;;;;;;1.87;1.63;;;;;;;;;;6156839;23;20486;-62
2023/08/13 14:09:42;;;;;;;2.73;1.77;;;;;;;;;;6156694;23;20406;-62
2023/08/13 14:12:09;;;;;;;3.83;1.97;;;;;;;;;;6157184;23;20498;-61
2023/08/13 14:14:37;;;;;;;2.87;2.10;;;;;;;;;;6156336;23;20490;-62
2023/08/13 14:17:04;;;;;;;1.80;1.57;;;;;;;;;;6156335;23;20411;-61
2023/08/13 14:19:31;;;;;;;2.17;1.80;;;;;;;;;;6156796;23;20490;-62
2023/08/13 14:22:00;;;;;;;2.60;2.00;;;;;;;;;;6156859;23;20800;-61
2023/08/13 14:24:27;;;;;;;2.40;2.07;;;;;;;;;;6156523;23;20517;-61
2023/08/13 14:26:53;;;;;;;3.23;2.00;;;;;;;;;;6156548;23;20407;-61
2023/08/13 14:29:22;;;;;;;4.77;2.20;;;;;;;;;;6156555;23;20577;-61
2023/08/13 14:31:50;;;;;;;1.80;1.70;;;;;;;;;;6156224;23;20721;-62
2023/08/13 14:34:17;;;;;;;1.93;1.60;;;;;;;;;;6156167;23;20918;-62
2023/08/13 14:36:44;;;;;;;2.03;1.80;;;;;;;;;;6156710;23;20406;-61
2023/08/13 14:39:11;;;;;;;1.73;1.63;;;;;;;;;;6156414;23;20438;-61
2023/08/13 14:41:38;;;;;;;1.80;1.70;;;;;;;;;;6156595;23;20438;-61
2023/08/13 14:44:05;;;;;;;2.30;1.80;;;;;;;;;;6156334;23;20503;-62
2023/08/13 14:46:32;;;;;;;2.43;1.70;;;;;;;;;;6156357;23;20486;-62